Time;durP1;ratioP1;P1;durP2;ratioP2;P2;SDS_P1;SDS_P2;PMS_P1;PMS_P2;Temp;Humidity;BMP_temperature;BMP_pressure;BME280_temperature;BME280_humidity;BME280_pressure;Samples;Min_cycle;Max_cycle;Signal;HPM_P1;HPM_P2
2023/06/10 00:01:38;;;;;;;10.07;5.57;;;;;;;;;;4926063;28;20044;-66
2023/06/10 00:04:04;;;;;;;14.00;5.90;;;;;;;;;;4896433;28;20086;-67
2023/06/10 00:06:35;;;;;;;10.75;5.28;;;;;;;;;;4911932;28;20403;-67
2023/06/10 00:09:01;;;;;;;10.73;5.47;;;;;;;;;;4929024;28;20059;-66
2023/06/10 00:11:27;;;;;;;7.78;5.38;;;;;;;;;;4931080;28;20118;-67
2023/06/10 00:13:53;;;;;;;9.15;5.40;;;;;;;;;;4932276;28;20039;-66
2023/06/10 00:16:20;;;;;;;11.15;5.82;;;;;;;;;;4932095;28;20039;-67
2023/06/10 00:18:46;;;;;;;8.45;5.22;;;;;;;;;;4926311;28;20431;-67
2023/06/10 00:21:13;;;;;;;10.57;5.70;;;;;;;;;;4914808;28;20130;-66
2023/06/10 00:23:39;;;;;;;9.68;5.30;;;;;;;;;;4925160;28;20051;-66
2023/06/10 00:26:05;;;;;;;7.97;5.00;;;;;;;;;;4926957;28;20047;-66
2023/06/10 00:28:31;;;;;;;9.32;5.13;;;;;;;;;;4912485;28;20053;-67
2023/06/10 00:30:57;;;;;;;9.43;5.00;;;;;;;;;;4926472;28;20054;-67
2023/06/10 00:33:23;;;;;;;6.65;4.38;;;;;;;;;;4927752;28;20444;-66
2023/06/10 00:35:50;;;;;;;10.02;5.10;;;;;;;;;;4924723;28;20039;-66
2023/06/10 00:38:16;;;;;;;9.15;4.85;;;;;;;;;;4907576;28;20122;-67
2023/06/10 00:40:42;;;;;;;13.38;5.05;;;;;;;;;;4926884;28;20050;-67
2023/06/10 00:43:08;;;;;;;7.43;4.50;;;;;;;;;;4925393;28;20109;-66
2023/06/10 00:45:34;;;;;;;8.30;4.85;;;;;;;;;;4925842;28;20051;-66
2023/06/10 00:48:01;;;;;;;10.55;4.47;;;;;;;;;;4909705;28;20476;-66
2023/06/10 00:50:28;;;;;;;8.73;4.85;;;;;;;;;;4923131;28;20118;-67
2023/06/10 00:52:57;;;;;;;7.50;4.82;;;;;;;;;;4923254;28;20054;-67
2023/06/10 00:55:24;;;;;;;8.88;4.53;;;;;;;;;;4923934;28;20043;-66
2023/06/10 00:57:51;;;;;;;7.88;4.47;;;;;;;;;;4908595;28;20055;-67
2023/06/10 01:00:17;;;;;;;7.88;4.60;;;;;;;;;;4924839;28;20118;-66
2023/06/10 01:02:43;;;;;;;9.65;4.90;;;;;;;;;;4912034;28;20230;-67
2023/06/10 01:05:10;;;;;;;11.63;5.20;;;;;;;;;;4926083;28;20134;-66
2023/06/10 01:07:55;;;;;;;10.45;4.85;;;;;;;;;;4924846;28;20054;-66
2023/06/10 01:10:21;;;;;;;8.35;4.75;;;;;;;;;;4924092;28;20048;-67
2023/06/10 01:13:02;;;;;;;11.60;5.15;;;;;;;;;;4925525;28;20043;-66
2023/06/10 01:15:31;;;;;;;10.15;4.95;;;;;;;;;;4921660;28;20035;-66
2023/06/10 01:17:59;;;;;;;7.43;4.93;;;;;;;;;;4905896;28;20046;-66
2023/06/10 01:20:26;;;;;;;15.25;5.40;;;;;;;;;;4925341;28;20055;-66
2023/06/10 01:22:54;;;;;;;9.55;5.00;;;;;;;;;;4924278;28;20106;-66
2023/06/10 01:25:27;;;;;;;12.25;5.35;;;;;;;;;;4925171;28;20324;-66
2023/06/10 01:27:55;;;;;;;15.80;5.47;;;;;;;;;;4928245;28;20605;-66
2023/06/10 01:30:25;;;;;;;7.22;4.80;;;;;;;;;;4913505;28;20057;-65
2023/06/10 01:32:52;;;;;;;11.27;5.30;;;;;;;;;;4915353;28;20511;-65
2023/06/10 01:35:18;;;;;;;10.60;5.20;;;;;;;;;;4929537;28;20399;-66
2023/06/10 01:37:46;;;;;;;9.05;5.78;;;;;;;;;;4933104;28;20484;-66
2023/06/10 01:40:13;;;;;;;11.68;5.22;;;;;;;;;;4919108;28;20039;-66
2023/06/10 01:42:39;;;;;;;9.13;5.30;;;;;;;;;;4925882;28;20423;-66
2023/06/10 01:45:05;;;;;;;14.18;5.82;;;;;;;;;;4912180;28;20050;-67
2023/06/10 01:47:31;;;;;;;10.52;5.63;;;;;;;;;;4909982;28;20515;-66
2023/06/10 01:49:58;;;;;;;11.15;5.50;;;;;;;;;;4912066;28;20202;-66
2023/06/10 01:52:24;;;;;;;11.95;5.95;;;;;;;;;;4927174;28;20118;-66
2023/06/10 01:54:50;;;;;;;8.00;5.13;;;;;;;;;;4928712;28;20047;-69
2023/06/10 01:57:16;;;;;;;12.93;6.05;;;;;;;;;;4929252;28;20055;-66
2023/06/10 01:59:44;;;;;;;11.63;6.07;;;;;;;;;;4927798;28;20585;-67
2023/06/10 02:02:10;;;;;;;11.88;5.55;;;;;;;;;;4929604;28;20082;-67
2023/06/10 02:04:36;;;;;;;12.82;6.40;;;;;;;;;;4914386;28;20606;-66
2023/06/10 02:07:06;;;;;;;11.07;5.80;;;;;;;;;;4929225;28;20044;-66
2023/06/10 02:09:34;;;;;;;12.32;5.72;;;;;;;;;;4929202;28;20054;-66
2023/06/10 02:12:00;;;;;;;14.95;6.50;;;;;;;;;;4928004;28;20067;-66
2023/06/10 02:14:27;;;;;;;12.52;5.70;;;;;;;;;;4914415;28;20166;-66
2023/06/10 02:16:56;;;;;;;13.77;6.63;;;;;;;;;;4900921;28;20579;-66
2023/06/10 02:19:23;;;;;;;11.32;5.57;;;;;;;;;;4928831;28;20043;-66
2023/06/10 02:21:49;;;;;;;13.15;6.10;;;;;;;;;;4928147;28;20044;-67
2023/06/10 02:24:16;;;;;;;16.38;6.82;;;;;;;;;;4927892;28;20050;-66
2023/06/10 02:26:42;;;;;;;12.27;6.15;;;;;;;;;;4929949;28;20065;-66
2023/06/10 02:29:08;;;;;;;12.25;5.78;;;;;;;;;;4929594;28;20247;-66
2023/06/10 02:31:35;;;;;;;12.95;6.13;;;;;;;;;;4929283;28;20092;-66
2023/06/10 02:34:02;;;;;;;12.93;6.55;;;;;;;;;;4928511;28;20492;-66
2023/06/10 02:36:29;;;;;;;12.65;6.88;;;;;;;;;;4914430;28;20055;-65
2023/06/10 02:38:55;;;;;;;11.90;6.68;;;;;;;;;;4926632;28;20462;-67
2023/06/10 02:41:24;;;;;;;13.88;6.90;;;;;;;;;;4929748;28;20053;-66
2023/06/10 02:43:50;;;;;;;10.35;7.13;;;;;;;;;;4924678;28;20050;-65
2023/06/10 02:46:17;;;;;;;18.23;7.15;;;;;;;;;;4927386;28;20420;-65
2023/06/10 02:48:43;;;;;;;13.50;6.95;;;;;;;;;;4925038;28;20284;-66
2023/06/10 02:51:10;;;;;;;14.98;7.50;;;;;;;;;;4910982;28;20534;-65
2023/06/10 02:53:36;;;;;;;13.45;7.35;;;;;;;;;;4924704;28;20082;-66
2023/06/10 02:56:02;;;;;;;15.50;8.15;;;;;;;;;;4926731;28;20069;-66
2023/06/10 02:58:29;;;;;;;12.23;7.22;;;;;;;;;;4927932;28;20051;-66
2023/06/10 03:00:55;;;;;;;14.40;7.80;;;;;;;;;;4923887;28;20047;-67
2023/06/10 03:03:22;;;;;;;17.08;7.30;;;;;;;;;;4912219;28;20047;-66
2023/06/10 03:05:48;;;;;;;14.40;8.25;;;;;;;;;;4927176;28;20058;-66
2023/06/10 03:08:14;;;;;;;16.98;8.00;;;;;;;;;;4915791;28;20345;-66
2023/06/10 03:10:40;;;;;;;16.17;7.80;;;;;;;;;;4927034;28;20484;-66
2023/06/10 03:13:06;;;;;;;19.75;8.05;;;;;;;;;;4929900;28;20150;-66
2023/06/10 03:15:33;;;;;;;15.07;7.25;;;;;;;;;;4926663;28;20175;-66
2023/06/10 03:18:02;;;;;;;23.75;8.70;;;;;;;;;;4930439;28;20557;-66
2023/06/10 03:20:29;;;;;;;15.23;7.63;;;;;;;;;;4893781;28;20039;-66
2023/06/10 03:22:55;;;;;;;18.65;8.20;;;;;;;;;;4928424;28;20141;-66
2023/06/10 03:25:22;;;;;;;15.93;7.95;;;;;;;;;;4916579;28;20113;-66
2023/06/10 03:27:48;;;;;;;15.57;8.63;;;;;;;;;;4926499;28;20051;-66
2023/06/10 03:30:14;;;;;;;17.45;8.35;;;;;;;;;;4925274;28;20550;-66
2023/06/10 03:32:40;;;;;;;17.08;8.15;;;;;;;;;;4924847;28;20138;-66
2023/06/10 03:35:07;;;;;;;18.88;8.60;;;;;;;;;;4923817;28;20088;-66
2023/06/10 03:37:33;;;;;;;18.13;7.97;;;;;;;;;;4921770;28;20048;-66
2023/06/10 03:39:59;;;;;;;15.80;8.15;;;;;;;;;;4924393;28;20683;-65
2023/06/10 03:42:25;;;;;;;16.85;8.35;;;;;;;;;;4910706;28;20083;-66
2023/06/10 03:44:51;;;;;;;20.95;9.07;;;;;;;;;;4927299;28;20043;-66
2023/06/10 03:47:18;;;;;;;18.55;8.05;;;;;;;;;;4922234;28;20070;-66
2023/06/10 03:49:44;;;;;;;18.38;8.77;;;;;;;;;;4909150;28;20050;-66
2023/06/10 03:52:10;;;;;;;20.58;8.90;;;;;;;;;;4926005;28;20180;-65
2023/06/10 03:54:36;;;;;;;15.13;8.20;;;;;;;;;;4920745;28;20047;-66
2023/06/10 03:57:03;;;;;;;18.15;8.38;;;;;;;;;;4926317;28;20047;-66
2023/06/10 03:59:29;;;;;;;16.70;8.60;;;;;;;;;;4888041;28;20042;-67
2023/06/10 04:01:55;;;;;;;13.55;7.97;;;;;;;;;;4929700;28;20063;-67
2023/06/10 04:04:21;;;;;;;19.92;8.00;;;;;;;;;;4925636;28;20163;-67
2023/06/10 04:06:48;;;;;;;15.40;7.88;;;;;;;;;;4925514;28;20043;-67
2023/06/10 04:09:15;;;;;;;15.50;8.13;;;;;;;;;;4925551;28;20247;-67
2023/06/10 04:11:41;;;;;;;18.80;7.50;;;;;;;;;;4925575;28;20464;-67
2023/06/10 04:14:08;;;;;;;17.58;8.32;;;;;;;;;;4906944;28;20105;-67
2023/06/10 04:16:34;;;;;;;21.60;8.90;;;;;;;;;;4922881;28;20049;-67
2023/06/10 04:19:01;;;;;;;13.77;7.15;;;;;;;;;;4923978;28;20039;-67
2023/06/10 04:21:27;;;;;;;19.10;9.32;;;;;;;;;;4925785;28;20047;-67
2023/06/10 04:23:53;;;;;;;17.25;8.57;;;;;;;;;;4926073;28;20057;-66
2023/06/10 04:26:20;;;;;;;18.13;7.50;;;;;;;;;;4927802;28;20126;-67
2023/06/10 04:28:46;;;;;;;14.38;7.93;;;;;;;;;;4924360;28;20047;-67
2023/06/10 04:31:12;;;;;;;14.48;7.93;;;;;;;;;;4931142;28;21718;-67
2023/06/10 04:33:39;;;;;;;16.10;7.78;;;;;;;;;;4909633;28;20591;-67
2023/06/10 04:36:06;;;;;;;18.00;7.78;;;;;;;;;;4924046;28;20121;-67
2023/06/10 04:38:33;;;;;;;13.85;7.35;;;;;;;;;;4924011;28;20050;-67
2023/06/10 04:40:59;;;;;;;16.13;8.13;;;;;;;;;;4912294;28;20586;-67
2023/06/10 04:43:27;;;;;;;15.98;8.32;;;;;;;;;;4911460;28;20514;-67
2023/06/10 04:45:53;;;;;;;14.45;7.38;;;;;;;;;;4909335;29;20055;-68
2023/06/10 04:48:19;;;;;;;14.27;7.57;;;;;;;;;;4918581;28;20051;-67
2023/06/10 04:50:45;;;;;;;17.77;8.50;;;;;;;;;;4907414;28;20137;-67
2023/06/10 04:53:11;;;;;;;14.23;7.97;;;;;;;;;;4927698;28;20046;-67
2023/06/10 04:55:37;;;;;;;18.70;8.00;;;;;;;;;;4927943;28;20043;-67
2023/06/10 04:58:03;;;;;;;20.00;8.75;;;;;;;;;;4912243;28;20075;-68
2023/06/10 05:00:29;;;;;;;17.83;8.13;;;;;;;;;;4928382;28;20404;-67
2023/06/10 05:02:55;;;;;;;19.10;8.30;;;;;;;;;;4909519;28;20089;-67
2023/06/10 05:05:22;;;;;;;16.20;8.88;;;;;;;;;;4913603;28;20047;-67
2023/06/10 05:07:48;;;;;;;13.82;7.18;;;;;;;;;;4909660;28;20123;-67
2023/06/10 05:10:14;;;;;;;15.93;8.02;;;;;;;;;;4927032;28;21402;-67
2023/06/10 05:12:41;;;;;;;14.30;7.55;;;;;;;;;;4910762;28;20052;-67
2023/06/10 05:15:07;;;;;;;15.57;8.05;;;;;;;;;;4928693;28;20054;-67
2023/06/10 05:17:34;;;;;;;21.58;7.78;;;;;;;;;;4927005;28;20043;-67
2023/06/10 05:20:01;;;;;;;15.90;8.02;;;;;;;;;;4913447;28;20058;-67
2023/06/10 05:22:27;;;;;;;19.98;8.65;;;;;;;;;;4912122;28;20058;-67
2023/06/10 05:24:53;;;;;;;18.08;8.82;;;;;;;;;;4927467;28;20047;-67
2023/06/10 05:27:19;;;;;;;15.70;7.82;;;;;;;;;;4914900;28;20056;-66
2023/06/10 05:29:46;;;;;;;15.95;8.15;;;;;;;;;;4930564;28;20478;-66
2023/06/10 05:32:12;;;;;;;15.73;8.13;;;;;;;;;;4931025;28;20043;-67
2023/06/10 05:34:38;;;;;;;14.55;7.43;;;;;;;;;;4932467;28;20393;-67
2023/06/10 05:37:04;;;;;;;21.60;8.25;;;;;;;;;;4926979;28;21673;-67
2023/06/10 05:39:30;;;;;;;12.82;7.45;;;;;;;;;;4930338;28;20054;-67
2023/06/10 05:41:58;;;;;;;16.92;8.68;;;;;;;;;;4925070;28;20114;-67
2023/06/10 05:44:25;;;;;;;12.98;7.75;;;;;;;;;;4922139;28;20051;-67
2023/06/10 05:46:51;;;;;;;15.40;7.28;;;;;;;;;;4913350;28;20056;-67
2023/06/10 05:49:17;;;;;;;15.85;7.95;;;;;;;;;;4929344;28;20071;-67
2023/06/10 05:51:43;;;;;;;13.57;7.75;;;;;;;;;;4923900;28;20530;-67
2023/06/10 05:54:10;;;;;;;18.98;7.78;;;;;;;;;;4922775;28;20040;-67
2023/06/10 05:56:36;;;;;;;17.60;8.20;;;;;;;;;;4922112;28;20582;-67
2023/06/10 05:59:02;;;;;;;14.55;7.72;;;;;;;;;;4926167;28;20039;-67
2023/06/10 06:01:28;;;;;;;16.65;7.90;;;;;;;;;;4909414;28;20054;-67
2023/06/10 06:03:54;;;;;;;12.77;7.22;;;;;;;;;;4923524;28;21079;-67
2023/06/10 06:06:20;;;;;;;17.48;7.75;;;;;;;;;;4910524;28;20058;-67
2023/06/10 06:08:46;;;;;;;18.33;6.78;;;;;;;;;;4924856;28;20058;-67
2023/06/10 06:11:13;;;;;;;15.98;7.47;;;;;;;;;;4911925;28;20051;-67
2023/06/10 06:13:41;;;;;;;13.30;7.07;;;;;;;;;;4923248;28;20057;-67
2023/06/10 06:16:07;;;;;;;17.20;7.55;;;;;;;;;;4910740;28;20050;-67
2023/06/10 06:18:33;;;;;;;12.18;6.93;;;;;;;;;;4925869;28;20053;-67
2023/06/10 06:20:59;;;;;;;10.77;6.65;;;;;;;;;;4924147;28;20161;-67
2023/06/10 06:23:25;;;;;;;12.68;6.63;;;;;;;;;;4932789;28;20051;-67
2023/06/10 06:25:51;;;;;;;16.80;8.00;;;;;;;;;;4925460;28;20388;-71
2023/06/10 06:28:18;;;;;;;16.85;7.13;;;;;;;;;;4916104;28;20055;-79
2023/06/10 06:30:45;;;;;;;17.65;7.05;;;;;;;;;;4905898;28;20051;-67
2023/06/10 06:33:11;;;;;;;15.95;6.53;;;;;;;;;;4932574;28;20185;-67
2023/06/10 06:35:38;;;;;;;14.27;6.80;;;;;;;;;;4929583;28;20061;-68
2023/06/10 06:38:04;;;;;;;12.85;6.15;;;;;;;;;;4929450;28;20055;-67
2023/06/10 06:40:30;;;;;;;16.00;6.60;;;;;;;;;;4915027;28;20058;-67
2023/06/10 06:42:57;;;;;;;18.63;6.47;;;;;;;;;;4930725;28;20074;-67
2023/06/10 06:45:23;;;;;;;11.93;6.35;;;;;;;;;;4929059;28;20401;-67
2023/06/10 06:47:49;;;;;;;12.07;6.75;;;;;;;;;;4933544;28;20452;-67
2023/06/10 06:50:16;;;;;;;12.40;6.00;;;;;;;;;;4934767;28;21805;-67
2023/06/10 06:52:42;;;;;;;13.43;5.65;;;;;;;;;;4934474;28;20055;-67
2023/06/10 06:55:08;;;;;;;12.80;6.32;;;;;;;;;;4934465;28;20047;-67
2023/06/10 06:57:35;;;;;;;14.30;5.93;;;;;;;;;;4912662;28;20079;-67
2023/06/10 07:00:01;;;;;;;17.23;6.28;;;;;;;;;;4934043;28;20050;-67
2023/06/10 07:02:27;;;;;;;15.25;6.32;;;;;;;;;;4916342;28;20047;-67
2023/06/10 07:04:55;;;;;;;11.55;5.53;;;;;;;;;;4935343;28;20433;-67
2023/06/10 07:07:22;;;;;;;14.85;6.65;;;;;;;;;;4935577;28;20043;-67
2023/06/10 07:09:51;;;;;;;11.05;5.30;;;;;;;;;;4935083;28;21100;-67
2023/06/10 07:12:17;;;;;;;10.70;5.53;;;;;;;;;;4935516;28;20423;-67
2023/06/10 07:14:43;;;;;;;10.80;5.60;;;;;;;;;;4928782;28;20476;-67
2023/06/10 07:17:09;;;;;;;16.45;5.80;;;;;;;;;;4935366;28;20122;-67
2023/06/10 07:19:35;;;;;;;13.13;5.45;;;;;;;;;;4934888;28;20099;-68
2023/06/10 07:22:02;;;;;;;13.65;5.57;;;;;;;;;;4935356;28;21651;-67
2023/06/10 07:24:28;;;;;;;12.00;4.90;;;;;;;;;;4935469;28;20054;-67
2023/06/10 07:26:54;;;;;;;8.60;4.82;;;;;;;;;;4935331;28;20129;-67
2023/06/10 07:29:20;;;;;;;9.75;4.85;;;;;;;;;;4917973;28;20058;-67
2023/06/10 07:31:46;;;;;;;11.98;4.93;;;;;;;;;;4910256;28;20044;-68
2023/06/10 07:34:12;;;;;;;9.93;4.93;;;;;;;;;;4912169;28;20081;-67
2023/06/10 07:36:38;;;;;;;10.45;5.00;;;;;;;;;;4933367;28;20053;-67
2023/06/10 07:39:05;;;;;;;13.95;5.10;;;;;;;;;;4917218;28;20047;-67
2023/06/10 07:41:31;;;;;;;11.57;4.90;;;;;;;;;;4920490;28;20051;-70
2023/06/10 07:43:57;;;;;;;7.38;4.45;;;;;;;;;;4913094;28;20578;-71
2023/06/10 07:46:24;;;;;;;14.60;5.07;;;;;;;;;;4917310;28;20081;-71
2023/06/10 07:48:52;;;;;;;13.40;4.35;;;;;;;;;;4934994;28;20552;-71
2023/06/10 07:51:18;;;;;;;11.93;4.90;;;;;;;;;;4916822;28;20079;-71
2023/06/10 07:53:44;;;;;;;12.32;4.78;;;;;;;;;;4930607;28;20059;-71
2023/06/10 07:56:10;;;;;;;11.55;4.70;;;;;;;;;;4934790;28;20043;-71
2023/06/10 07:58:36;;;;;;;12.23;4.25;;;;;;;;;;4918158;28;20051;-71
2023/06/10 08:01:02;;;;;;;11.13;4.68;;;;;;;;;;4917347;28;20051;-71
2023/06/10 08:03:28;;;;;;;11.05;4.60;;;;;;;;;;4930350;28;20058;-71
2023/06/10 08:05:54;;;;;;;10.32;4.50;;;;;;;;;;4917397;28;20047;-70
2023/06/10 08:08:21;;;;;;;9.10;4.70;;;;;;;;;;4932848;28;21735;-71
2023/06/10 08:10:47;;;;;;;9.20;3.90;;;;;;;;;;4932819;28;20039;-71
2023/06/10 08:13:14;;;;;;;9.02;4.68;;;;;;;;;;4915974;28;20047;-71
2023/06/10 08:15:40;;;;;;;9.65;4.43;;;;;;;;;;4915301;28;20058;-71
2023/06/10 08:18:06;;;;;;;10.02;4.57;;;;;;;;;;4910609;28;20078;-71
2023/06/10 08:20:32;;;;;;;16.55;4.20;;;;;;;;;;4934469;28;20050;-72
2023/06/10 08:22:58;;;;;;;11.57;4.45;;;;;;;;;;4914462;28;20138;-72
2023/06/10 08:25:24;;;;;;;7.18;4.18;;;;;;;;;;4913239;28;20277;-70
2023/06/10 08:27:51;;;;;;;14.95;4.40;;;;;;;;;;4911675;28;20884;-69
2023/06/10 08:30:18;;;;;;;10.05;3.63;;;;;;;;;;4914002;28;20055;-69
2023/06/10 08:32:44;;;;;;;13.63;4.68;;;;;;;;;;4916152;28;20065;-69
2023/06/10 08:35:10;;;;;;;13.13;4.72;;;;;;;;;;4913124;28;20454;-71
2023/06/10 08:37:36;;;;;;;6.57;3.28;;;;;;;;;;4918890;28;20050;-70
2023/06/10 08:40:03;;;;;;;16.05;3.90;;;;;;;;;;4916974;28;20421;-70
2023/06/10 08:42:33;;;;;;;9.65;4.55;;;;;;;;;;4931626;28;20744;-70
2023/06/10 08:45:01;;;;;;;10.68;4.57;;;;;;;;;;4929045;28;20130;-70
2023/06/10 08:47:30;;;;;;;13.27;4.53;;;;;;;;;;4932137;28;20194;-70
2023/06/10 08:50:01;;;;;;;11.90;4.43;;;;;;;;;;4926659;28;20057;-70
2023/06/10 08:52:29;;;;;;;12.38;4.18;;;;;;;;;;4927493;28;20055;-70
2023/06/10 08:55:04;;;;;;;14.48;4.32;;;;;;;;;;4899770;28;20047;-70
2023/06/10 08:57:31;;;;;;;9.30;4.55;;;;;;;;;;4911484;28;20079;-70
2023/06/10 08:59:58;;;;;;;8.52;3.95;;;;;;;;;;4914341;28;20039;-70
2023/06/10 09:02:24;;;;;;;10.27;4.50;;;;;;;;;;4933161;28;20133;-70
2023/06/10 09:04:51;;;;;;;8.30;3.60;;;;;;;;;;4917235;28;20055;-70
2023/06/10 09:07:17;;;;;;;9.80;4.03;;;;;;;;;;4900829;28;20054;-70
2023/06/10 09:09:44;;;;;;;10.77;4.38;;;;;;;;;;4912601;28;20138;-70
2023/06/10 09:12:11;;;;;;;10.73;4.60;;;;;;;;;;4930413;28;20052;-70
2023/06/10 09:14:37;;;;;;;11.00;4.38;;;;;;;;;;4929325;28;20165;-70
2023/06/10 09:17:04;;;;;;;13.20;5.00;;;;;;;;;;4911670;28;20114;-69
2023/06/10 09:19:30;;;;;;;13.60;4.32;;;;;;;;;;4916381;28;20103;-71
2023/06/10 09:21:56;;;;;;;8.60;4.40;;;;;;;;;;4917385;28;20514;-71
2023/06/10 09:24:25;;;;;;;8.32;4.50;;;;;;;;;;4916312;28;20085;-69
2023/06/10 09:27:02;;;;;;;8.57;4.55;;;;;;;;;;4914386;28;20126;-70
2023/06/10 09:29:29;;;;;;;10.80;4.32;;;;;;;;;;4917012;28;20063;-69
2023/06/10 09:31:55;;;;;;;10.98;4.70;;;;;;;;;;4933981;28;20046;-69
2023/06/10 09:34:25;;;;;;;9.45;4.82;;;;;;;;;;4933606;28;20606;-69
2023/06/10 09:36:51;;;;;;;11.30;4.50;;;;;;;;;;4915750;28;20054;-69
2023/06/10 09:39:18;;;;;;;7.93;4.15;;;;;;;;;;4930527;28;20043;-69
2023/06/10 09:41:45;;;;;;;7.43;4.38;;;;;;;;;;4916497;28;20800;-71
2023/06/10 09:44:14;;;;;;;7.18;4.15;;;;;;;;;;4934936;28;20534;-68
2023/06/10 09:46:40;;;;;;;9.07;4.32;;;;;;;;;;4930679;28;20509;-70
2023/06/10 09:49:06;;;;;;;10.05;4.72;;;;;;;;;;4917381;28;20051;-69
2023/06/10 09:51:33;;;;;;;11.43;4.75;;;;;;;;;;4897343;28;20118;-69
2023/06/10 09:53:59;;;;;;;11.15;4.65;;;;;;;;;;4936115;28;20047;-69
2023/06/10 09:56:35;;;;;;;9.98;4.47;;;;;;;;;;4934082;28;20051;-69
2023/06/10 09:59:02;;;;;;;17.20;5.32;;;;;;;;;;4915571;28;20058;-68
2023/06/10 10:01:28;;;;;;;10.32;4.47;;;;;;;;;;4899957;28;20047;-68
2023/06/10 10:03:54;;;;;;;13.32;5.35;;;;;;;;;;4911439;28;20724;-67
2023/06/10 10:06:21;;;;;;;9.18;4.70;;;;;;;;;;4936521;28;20251;-68
2023/06/10 10:08:48;;;;;;;8.85;5.10;;;;;;;;;;4933903;28;20047;-69
2023/06/10 10:11:19;;;;;;;10.52;4.80;;;;;;;;;;4927669;28;20149;-68
2023/06/10 10:13:47;;;;;;;11.77;4.70;;;;;;;;;;4923815;28;20793;-69
2023/06/10 10:16:40;;;;;;;8.55;5.03;;;;;;;;;;4934539;28;20085;-67
2023/06/10 10:19:16;;;;;;;7.97;5.15;;;;;;;;;;4915399;28;20114;-69
2023/06/10 10:21:45;;;;;;;11.18;5.05;;;;;;;;;;4927559;28;20050;-68
2023/06/10 10:24:19;;;;;;;9.45;4.95;;;;;;;;;;4931278;28;20042;-69
2023/06/10 10:26:47;;;;;;;8.77;4.40;;;;;;;;;;4914996;28;20058;-68
2023/06/10 10:29:13;;;;;;;8.32;4.80;;;;;;;;;;4934112;28;20039;-68
2023/06/10 10:31:39;;;;;;;10.77;4.35;;;;;;;;;;4934567;28;20512;-69
2023/06/10 10:34:07;;;;;;;9.32;4.75;;;;;;;;;;4935381;28;20501;-69
2023/06/10 10:36:34;;;;;;;9.05;4.40;;;;;;;;;;4938962;28;20105;-69
2023/06/10 10:39:01;;;;;;;8.05;4.65;;;;;;;;;;4937909;28;20542;-69
2023/06/10 10:41:28;;;;;;;9.15;5.05;;;;;;;;;;4937079;28;20078;-69
2023/06/10 10:43:55;;;;;;;7.22;4.10;;;;;;;;;;4914997;28;20141;-69
2023/06/10 10:46:21;;;;;;;14.07;4.60;;;;;;;;;;4917995;28;20181;-69
2023/06/10 10:48:52;;;;;;;9.10;5.90;;;;;;;;;;4937340;28;20517;-69
2023/06/10 10:51:18;;;;;;;9.98;4.13;;;;;;;;;;4936732;28;20095;-69
2023/06/10 10:53:45;;;;;;;10.73;4.40;;;;;;;;;;4922306;28;20078;-69
2023/06/10 10:56:15;;;;;;;10.80;4.80;;;;;;;;;;4920191;28;20043;-69
2023/06/10 10:58:41;;;;;;;9.73;4.20;;;;;;;;;;4919633;28;20055;-70
2023/06/10 11:01:11;;;;;;;6.07;4.50;;;;;;;;;;4934323;28;20535;-69
2023/06/10 11:03:44;;;;;;;16.95;4.78;;;;;;;;;;4913065;28;20051;-69
2023/06/10 11:06:15;;;;;;;11.18;4.28;;;;;;;;;;4913272;28;20040;-69
2023/06/10 11:08:41;;;;;;;8.68;3.92;;;;;;;;;;4930513;28;20059;-68
2023/06/10 11:11:20;;;;;;;6.70;4.40;;;;;;;;;;4919485;28;20506;-69
2023/06/10 11:14:00;;;;;;;8.38;4.45;;;;;;;;;;4936736;28;20062;-69
2023/06/10 11:16:28;;;;;;;11.27;4.90;;;;;;;;;;4920563;28;20193;-68
2023/06/10 11:18:55;;;;;;;10.00;4.43;;;;;;;;;;4919141;28;20042;-69
2023/06/10 11:21:21;;;;;;;11.27;4.68;;;;;;;;;;4920730;28;20122;-69
2023/06/10 11:23:49;;;;;;;14.88;4.47;;;;;;;;;;4920268;28;20119;-69
2023/06/10 11:26:17;;;;;;;9.82;4.57;;;;;;;;;;4919843;28;20103;-69
2023/06/10 11:29:02;;;;;;;10.27;4.30;;;;;;;;;;4937578;28;20126;-69
2023/06/10 11:31:29;;;;;;;7.28;4.50;;;;;;;;;;4918937;28;20567;-69
2023/06/10 11:33:56;;;;;;;10.90;4.80;;;;;;;;;;4911793;29;20052;-68
2023/06/10 11:36:23;;;;;;;8.85;4.55;;;;;;;;;;4915066;28;20488;-69
2023/06/10 11:38:50;;;;;;;6.93;4.28;;;;;;;;;;4932472;28;20053;-69
2023/06/10 11:41:18;;;;;;;14.30;4.72;;;;;;;;;;4915784;28;20061;-69
2023/06/10 11:43:44;;;;;;;10.60;4.43;;;;;;;;;;4932358;28;20416;-69
2023/06/10 11:46:11;;;;;;;9.70;4.22;;;;;;;;;;4915765;28;20142;-70
2023/06/10 11:48:37;;;;;;;9.23;4.28;;;;;;;;;;4916271;28;20078;-69
2023/06/10 11:51:07;;;;;;;8.82;4.20;;;;;;;;;;4932383;28;20492;-70
2023/06/10 11:53:33;;;;;;;14.57;4.18;;;;;;;;;;4933859;28;20588;-69
2023/06/10 11:56:00;;;;;;;10.48;4.18;;;;;;;;;;4934548;28;20043;-70
2023/06/10 11:58:26;;;;;;;9.70;4.30;;;;;;;;;;4933580;28;20031;-70
2023/06/10 12:00:53;;;;;;;10.70;4.25;;;;;;;;;;4932274;28;20035;-70
2023/06/10 12:03:19;;;;;;;7.97;4.03;;;;;;;;;;4916710;28;20051;-70
2023/06/10 12:06:00;;;;;;;7.70;3.83;;;;;;;;;;4914270;28;20416;-70
2023/06/10 12:08:27;;;;;;;10.50;4.10;;;;;;;;;;4933326;28;20043;-70
2023/06/10 12:10:53;;;;;;;10.18;4.47;;;;;;;;;;4914815;28;20043;-70
2023/06/10 12:13:20;;;;;;;8.48;4.45;;;;;;;;;;4933105;28;20476;-70
2023/06/10 12:15:48;;;;;;;7.18;3.60;;;;;;;;;;4931711;28;20464;-69
2023/06/10 12:18:18;;;;;;;8.55;4.32;;;;;;;;;;4933194;28;20391;-70
2023/06/10 12:20:45;;;;;;;8.18;4.13;;;;;;;;;;4933393;28;20047;-70
2023/06/10 12:23:11;;;;;;;8.90;4.07;;;;;;;;;;4916192;28;20039;-70
2023/06/10 12:25:38;;;;;;;10.00;4.25;;;;;;;;;;4896604;28;20046;-69
2023/06/10 12:28:04;;;;;;;10.25;3.90;;;;;;;;;;4933382;28;20057;-70
2023/06/10 12:30:31;;;;;;;16.40;4.10;;;;;;;;;;4912500;28;20090;-70
2023/06/10 12:32:57;;;;;;;9.25;4.13;;;;;;;;;;4915856;28;20142;-70
2023/06/10 12:35:25;;;;;;;11.88;4.10;;;;;;;;;;4934064;28;20478;-70
2023/06/10 12:38:01;;;;;;;7.00;3.83;;;;;;;;;;4912706;28;20134;-69
2023/06/10 12:40:28;;;;;;;5.72;3.47;;;;;;;;;;4930345;28;20088;-70
2023/06/10 12:42:55;;;;;;;11.00;3.75;;;;;;;;;;4929308;28;20055;-70
2023/06/10 12:45:44;;;;;;;8.27;3.55;;;;;;;;;;4930272;28;20051;-70
2023/06/10 12:48:10;;;;;;;6.75;3.83;;;;;;;;;;4930545;28;20105;-70
2023/06/10 12:50:37;;;;;;;11.65;4.38;;;;;;;;;;4931250;28;20051;-70
2023/06/10 12:53:04;;;;;;;8.73;3.83;;;;;;;;;;4912554;28;20047;-69
2023/06/10 12:55:30;;;;;;;8.95;3.60;;;;;;;;;;4914041;28;20538;-70
2023/06/10 12:57:57;;;;;;;11.32;4.03;;;;;;;;;;4920668;28;20625;-70
2023/06/10 13:00:25;;;;;;;7.22;3.42;;;;;;;;;;4930422;28;20054;-70
2023/06/10 13:02:52;;;;;;;6.32;3.53;;;;;;;;;;4915561;28;20570;-70
2023/06/10 13:05:19;;;;;;;8.65;3.38;;;;;;;;;;4917500;28;20105;-70
2023/06/10 13:07:45;;;;;;;7.00;3.38;;;;;;;;;;4924755;28;20051;-70
2023/06/10 13:10:11;;;;;;;7.93;3.15;;;;;;;;;;4927214;28;20507;-70
2023/06/10 13:12:37;;;;;;;7.93;3.17;;;;;;;;;;4929622;28;20091;-70
2023/06/10 13:15:04;;;;;;;6.32;3.20;;;;;;;;;;4925345;28;20664;-70
2023/06/10 13:17:30;;;;;;;7.40;3.63;;;;;;;;;;4933644;28;20050;-70
2023/06/10 13:19:56;;;;;;;7.63;3.40;;;;;;;;;;4927504;28;20040;-70
2023/06/10 13:22:23;;;;;;;7.00;3.47;;;;;;;;;;4931880;28;20433;-69
2023/06/10 13:24:50;;;;;;;8.60;3.60;;;;;;;;;;4911264;28;20047;-69
2023/06/10 13:27:16;;;;;;;10.20;3.47;;;;;;;;;;4931685;28;20043;-70
2023/06/10 13:29:42;;;;;;;6.93;3.67;;;;;;;;;;4934092;28;20097;-69
2023/06/10 13:32:08;;;;;;;9.93;3.40;;;;;;;;;;4934410;28;20090;-69
2023/06/10 13:34:34;;;;;;;8.20;3.15;;;;;;;;;;4934095;28;20039;-69
2023/06/10 13:37:00;;;;;;;9.27;3.30;;;;;;;;;;4934982;28;20095;-69
2023/06/10 13:39:26;;;;;;;6.55;3.03;;;;;;;;;;4932636;28;20050;-69
2023/06/10 13:41:53;;;;;;;6.25;3.38;;;;;;;;;;4934591;28;20047;-69
2023/06/10 13:44:19;;;;;;;11.95;3.03;;;;;;;;;;4934523;28;20056;-70
2023/06/10 13:46:45;;;;;;;10.80;3.00;;;;;;;;;;4919561;28;20518;-70
2023/06/10 13:49:11;;;;;;;8.52;3.97;;;;;;;;;;4933958;28;20111;-69
2023/06/10 13:51:37;;;;;;;6.55;3.08;;;;;;;;;;4933375;28;20051;-70
2023/06/10 13:54:03;;;;;;;10.65;3.30;;;;;;;;;;4933871;28;20070;-70
2023/06/10 13:56:30;;;;;;;9.85;3.13;;;;;;;;;;4933201;28;20039;-70
2023/06/10 13:58:56;;;;;;;7.50;3.50;;;;;;;;;;4919205;28;20047;-70
2023/06/10 14:01:22;;;;;;;6.55;3.67;;;;;;;;;;4932947;28;20495;-70
2023/06/10 14:03:48;;;;;;;7.63;3.30;;;;;;;;;;4919645;28;20081;-70
2023/06/10 14:06:18;;;;;;;10.05;3.60;;;;;;;;;;4933923;28;20047;-69
2023/06/10 14:08:44;;;;;;;6.78;3.50;;;;;;;;;;4918890;28;20058;-69
2023/06/10 14:11:10;;;;;;;8.15;3.20;;;;;;;;;;4913500;28;20117;-70
2023/06/10 14:13:38;;;;;;;8.40;2.95;;;;;;;;;;4899087;28;20515;-69
2023/06/10 14:16:04;;;;;;;6.82;3.55;;;;;;;;;;4933679;28;20070;-70
2023/06/10 14:18:31;;;;;;;10.27;3.40;;;;;;;;;;4934542;28;20440;-70
2023/06/10 14:20:57;;;;;;;6.50;3.15;;;;;;;;;;4933376;28;20130;-70
2023/06/10 14:23:25;;;;;;;5.35;3.10;;;;;;;;;;4916120;28;20146;-69
2023/06/10 14:25:51;;;;;;;7.40;3.10;;;;;;;;;;4933504;28;20059;-69
2023/06/10 14:28:17;;;;;;;8.85;3.00;;;;;;;;;;4931812;28;20047;-69
2023/06/10 14:30:43;;;;;;;5.85;3.17;;;;;;;;;;4934378;28;20483;-69
2023/06/10 14:33:09;;;;;;;4.22;3.03;;;;;;;;;;4932482;28;20047;-70